Time;durP1;ratioP1;P1;durP2;ratioP2;P2;SDS_P1;SDS_P2;PMS_P1;PMS_P2;Temp;Humidity;BMP_temperature;BMP_pressure;BME280_temperature;BME280_humidity;BME280_pressure;Samples;Min_cycle;Max_cycle;Signal;HPM_P1;HPM_P2
2023/05/15 00:00:47;;;;;;;;;;;;;;;15.05;94.40;101444.63;5246256;28;20366;-71
2023/05/15 00:03:18;;;;;;;;;;;;;;;15.04;92.46;101439.50;5243942;28;19924;-71
2023/05/15 00:05:49;;;;;;;;;;;;;;;15.07;90.76;101439.19;5225208;28;20011;-71
2023/05/15 00:08:20;;;;;;;;;;;;;;;15.02;91.19;101436.97;5221534;28;19917;-72
2023/05/15 00:10:52;;;;;;;;;;;;;;;15.04;92.09;101431.56;5236931;28;20501;-71
2023/05/15 00:13:23;;;;;;;;;;;;;;;15.07;91.05;101431.25;5237546;28;19920;-71
2023/05/15 00:15:54;;;;;;;;;;;;;;;15.08;90.80;101439.06;5240446;28;19917;-71
2023/05/15 00:18:26;;;;;;;;;;;;;;;15.09;92.14;101445.16;5248958;28;19968;-71
2023/05/15 00:20:57;;;;;;;;;;;;;;;15.05;91.98;101438.50;5247135;28;20297;-71
2023/05/15 00:23:28;;;;;;;;;;;;;;;15.00;91.54;101444.22;5242510;28;19913;-72
2023/05/15 00:25:59;;;;;;;;;;;;;;;14.92;93.42;101437.97;5236749;28;19924;-71
2023/05/15 00:28:30;;;;;;;;;;;;;;;14.80;90.75;101421.50;5235146;28;19978;-71
2023/05/15 00:31:01;;;;;;;;;;;;;;;14.74;90.53;101430.00;5245724;28;19952;-71
2023/05/15 00:33:33;;;;;;;;;;;;;;;14.75;92.62;101429.03;5239937;28;19916;-71
2023/05/15 00:36:04;;;;;;;;;;;;;;;14.74;92.36;101420.28;5233370;28;19913;-71
2023/05/15 00:38:36;;;;;;;;;;;;;;;14.70;90.63;101420.69;5246859;28;20691;-71
2023/05/15 00:41:09;;;;;;;;;;;;;;;14.65;91.64;101418.47;5246754;28;19925;-71
2023/05/15 00:43:41;;;;;;;;;;;;;;;14.62;91.92;101410.03;5243738;28;20385;-71
2023/05/15 00:46:12;;;;;;;;;;;;;;;14.59;93.99;101422.53;5247276;28;19982;-71
2023/05/15 00:48:43;;;;;;;;;;;;;;;14.57;93.60;101415.72;5239023;28;19944;-72
2023/05/15 00:51:15;;;;;;;;;;;;;;;14.49;92.86;101411.16;5240453;28;19921;-71
2023/05/15 00:53:50;;;;;;;;;;;;;;;14.45;94.16;101414.19;5247693;28;19924;-72
2023/05/15 00:56:21;;;;;;;;;;;;;;;14.38;93.59;101413.09;5243779;28;19946;-71
2023/05/15 00:58:54;;;;;;;;;;;;;;;14.35;93.87;101412.41;5240958;28;19947;-71
2023/05/15 01:01:25;;;;;;;;;;;;;;;14.33;92.91;101410.91;5241829;28;19944;-70
2023/05/15 01:03:56;;;;;;;;;;;;;;;14.27;93.43;101409.63;5230991;28;19913;-71
2023/05/15 01:06:31;;;;;;;;;;;;;;;14.23;93.95;101408.25;5243464;28;19975;-71
2023/05/15 01:09:03;;;;;;;;;;;;;;;14.18;93.29;101402.59;5241217;28;19920;-71
2023/05/15 01:11:36;;;;;;;;;;;;;;;14.18;92.98;101393.84;5242672;28;19920;-71
2023/05/15 01:14:07;;;;;;;;;;;;;;;14.16;92.49;101401.03;5242452;28;19916;-71
2023/05/15 01:16:40;;;;;;;;;;;;;;;14.14;92.27;101393.28;5241650;28;20000;-71
2023/05/15 01:19:11;;;;;;;;;;;;;;;14.14;92.04;101395.94;5243365;28;19919;-71
2023/05/15 01:22:01;;;;;;;;;;;;;;;14.11;92.35;101404.94;5243509;28;19921;-71
2023/05/15 01:24:42;;;;;;;;;;;;;;;14.09;92.27;101404.25;5242504;28;19958;-71
2023/05/15 01:27:19;;;;;;;;;;;;;;;14.06;93.82;101393.16;5222904;28;19955;-71
2023/05/15 01:29:53;;;;;;;;;;;;;;;14.03;92.71;101398.72;5240290;28;19921;-71
2023/05/15 01:32:49;;;;;;;;;;;;;;;14.01;92.54;101392.72;5222473;28;19983;-70
2023/05/15 01:35:29;;;;;;;;;;;;;;;14.00;95.41;101394.53;5243298;28;19917;-71
2023/05/15 01:38:12;;;;;;;;;;;;;;;13.99;94.65;101397.31;5244810;28;19917;-71
2023/05/15 01:40:46;;;;;;;;;;;;;;;13.95;93.98;101390.66;5240858;28;20343;-71
2023/05/15 01:43:20;;;;;;;;;;;;;;;13.90;94.35;101382.34;5240315;28;19920;-71
2023/05/15 01:45:52;;;;;;;;;;;;;;;13.88;93.95;101391.22;5241062;28;19920;-71
2023/05/15 01:48:24;;;;;;;;;;;;;;;13.86;95.25;101387.03;5242642;28;19920;-71
2023/05/15 01:51:00;;;;;;;;;;;;;;;13.86;95.98;101381.78;5241102;28;20051;-71
2023/05/15 01:53:32;;;;;;;;;;;;;;;13.83;93.80;101377.63;5236900;28;19998;-71
2023/05/15 01:56:05;;;;;;;;;;;;;;;13.84;94.91;101379.28;5245097;28;20106;-71
2023/05/15 01:58:38;;;;;;;;;;;;;;;13.80;93.95;101367.38;5241502;28;20011;-71
2023/05/15 02:01:10;;;;;;;;;;;;;;;13.81;93.50;101374.28;5239312;28;20461;-71
2023/05/15 02:03:42;;;;;;;;;;;;;;;13.79;93.98;101372.78;5242913;28;19959;-71
2023/05/15 02:06:13;;;;;;;;;;;;;;;13.79;94.45;101375.41;5241619;28;19924;-71
2023/05/15 02:08:45;;;;;;;;;;;;;;;13.73;94.88;101368.06;5240887;28;19920;-71
2023/05/15 02:11:16;;;;;;;;;;;;;;;13.69;95.00;101371.94;5239269;28;20301;-71
2023/05/15 02:13:47;;;;;;;;;;;;;;;13.69;94.79;101367.50;5241673;28;20043;-71
2023/05/15 02:16:19;;;;;;;;;;;;;;;13.70;95.43;101373.59;5246632;28;19975;-71
2023/05/15 02:18:51;;;;;;;;;;;;;;;13.67;95.18;101377.31;5242167;28;19924;-71
2023/05/15 02:21:22;;;;;;;;;;;;;;;13.61;95.27;101378.72;5242600;28;19913;-71
2023/05/15 02:23:53;;;;;;;;;;;;;;;13.63;95.30;101373.31;5238888;28;19943;-71
2023/05/15 02:26:45;;;;;;;;;;;;;;;13.61;95.57;101368.19;5225765;28;20375;-71
2023/05/15 02:29:24;;;;;;;;;;;;;;;13.60;96.23;101368.34;5233825;28;20399;-71
2023/05/15 02:31:56;;;;;;;;;;;;;;;13.57;96.00;101377.34;5243601;28;19917;-70
2023/05/15 02:34:45;;;;;;;;;;;;;;;13.55;98.15;101383.69;5243022;28;19939;-71
2023/05/15 02:37:20;;;;;;;;;;;;;;;13.51;98.62;101388.41;5236404;28;19919;-70
2023/05/15 02:39:53;;;;;;;;;;;;;;;13.45;97.20;101388.09;5245514;28;20379;-71
2023/05/15 02:42:28;;;;;;;;;;;;;;;13.45;98.45;101388.09;5241321;28;20473;-71
2023/05/15 02:45:00;;;;;;;;;;;;;;;13.39;100.00;101400.00;5241364;28;20366;-71
2023/05/15 02:47:32;;;;;;;;;;;;;;;13.32;100.00;101389.19;5244847;28;19927;-71
2023/05/15 02:50:03;;;;;;;;;;;;;;;13.31;100.00;101394.59;5244835;28;20302;-71
2023/05/15 02:52:35;;;;;;;;;;;;;;;13.30;100.00;101395.56;5244962;28;19920;-70
2023/05/15 02:55:06;;;;;;;;;;;;;;;13.29;100.00;101392.06;5247036;28;19947;-71
2023/05/15 02:57:37;;;;;;;;;;;;;;;13.31;100.00;101384.91;5244147;28;20930;-70
2023/05/15 03:00:12;;;;;;;;;;;;;;;13.31;100.00;101382.25;5247199;28;19916;-71
2023/05/15 03:02:43;;;;;;;;;;;;;;;13.25;100.00;101385.41;5243553;28;20374;-71
2023/05/15 03:05:14;;;;;;;;;;;;;;;13.22;100.00;101379.56;5249765;28;19920;-71
2023/05/15 03:07:45;;;;;;;;;;;;;;;13.22;99.85;101377.78;5245893;28;19921;-71
2023/05/15 03:10:17;;;;;;;;;;;;;;;13.22;100.00;101377.78;5245493;28;19971;-71
2023/05/15 03:12:48;;;;;;;;;;;;;;;13.22;99.79;101375.16;5246861;28;20012;-71
2023/05/15 03:15:20;;;;;;;;;;;;;;;13.19;100.00;101380.69;5249769;28;19936;-71
2023/05/15 03:17:51;;;;;;;;;;;;;;;13.19;100.00;101370.16;5243944;28;20345;-71
2023/05/15 03:20:22;;;;;;;;;;;;;;;13.19;100.00;101378.06;5245039;28;19921;-71
2023/05/15 03:22:53;;;;;;;;;;;;;;;13.11;100.00;101372.63;5237631;28;20000;-70
2023/05/15 03:25:24;;;;;;;;;;;;;;;13.06;100.00;101370.38;5241732;28;19920;-71
2023/05/15 03:27:56;;;;;;;;;;;;;;;13.04;100.00;101372.31;5249051;28;19921;-71
2023/05/15 03:30:27;;;;;;;;;;;;;;;13.02;100.00;101374.25;5245504;28;19921;-71
2023/05/15 03:32:58;;;;;;;;;;;;;;;13.02;100.00;101370.78;5243918;28;20005;-71
2023/05/15 03:35:31;;;;;;;;;;;;;;;13.02;100.00;101365.53;5243896;28;20112;-71
2023/05/15 03:38:02;;;;;;;;;;;;;;;13.01;100.00;101364.69;5244302;28;19924;-71
2023/05/15 03:40:33;;;;;;;;;;;;;;;12.99;100.00;101365.78;5242780;28;19913;-71
2023/05/15 03:43:05;;;;;;;;;;;;;;;12.95;100.00;101361.75;5242878;28;19923;-70
2023/05/15 03:45:37;;;;;;;;;;;;;;;12.91;100.00;101358.56;5243740;28;19913;-71
2023/05/15 03:48:08;;;;;;;;;;;;;;;12.87;100.00;101357.16;5241117;28;19970;-71
2023/05/15 03:50:40;;;;;;;;;;;;;;;12.84;100.00;101360.03;5239054;28;19933;-71
2023/05/15 03:53:11;;;;;;;;;;;;;;;12.70;98.68;101334.97;5243381;28;19920;-71
2023/05/15 03:55:42;;;;;;;;;;;;;;;12.82;100.00;101348.84;5246500;28;19913;-71
2023/05/15 03:58:14;;;;;;;;;;;;;;;12.83;100.00;101361.00;5250593;28;20421;-71
2023/05/15 04:00:45;;;;;;;;;;;;;;;12.81;100.00;101363.78;5246251;28;19912;-71
2023/05/15 04:03:17;;;;;;;;;;;;;;;12.81;100.00;101358.53;5230833;28;19917;-71
2023/05/15 04:05:49;;;;;;;;;;;;;;;12.74;100.00;101357.38;5242811;28;19917;-71
2023/05/15 04:08:20;;;;;;;;;;;;;;;12.74;100.00;101356.56;5243190;28;20401;-71
2023/05/15 04:10:51;;;;;;;;;;;;;;;12.75;100.00;101355.59;5244411;28;19917;-71
2023/05/15 04:13:22;;;;;;;;;;;;;;;12.72;100.00;101359.31;5247189;28;19967;-71
2023/05/15 04:15:53;;;;;;;;;;;;;;;12.74;100.00;101357.38;5227122;28;19924;-71
2023/05/15 04:18:25;;;;;;;;;;;;;;;12.73;100.00;101355.72;5236376;28;19923;-71
2023/05/15 04:20:56;;;;;;;;;;;;;;;12.74;100.00;101357.38;5245385;28;19974;-71
2023/05/15 04:23:27;;;;;;;;;;;;;;;12.75;100.00;101356.41;5246197;28;19913;-71
2023/05/15 04:25:58;;;;;;;;;;;;;;;12.69;100.00;101351.72;5246529;28;19917;-71
2023/05/15 04:28:30;;;;;;;;;;;;;;;12.66;100.00;101360.69;5239864;28;20007;-71
2023/05/15 04:31:01;;;;;;;;;;;;;;;12.57;100.00;101365.88;5242555;28;19921;-71
2023/05/15 04:33:32;;;;;;;;;;;;;;;12.53;100.00;101374.97;5242719;28;20252;-71
2023/05/15 04:36:04;;;;;;;;;;;;;;;12.55;100.00;101376.53;5243094;28;19958;-71
2023/05/15 04:38:36;;;;;;;;;;;;;;;12.57;100.00;101371.94;5242551;28;20283;-71
2023/05/15 04:41:07;;;;;;;;;;;;;;;12.57;100.00;101379.84;5246130;28;19913;-71
2023/05/15 04:43:38;;;;;;;;;;;;;;;12.58;100.00;101383.34;5236354;28;19913;-71
2023/05/15 04:46:09;;;;;;;;;;;;;;;12.58;100.00;101384.16;5245891;28;20438;-71
2023/05/15 04:48:40;;;;;;;;;;;;;;;12.58;100.00;101384.16;5244111;28;19912;-71
2023/05/15 04:51:12;;;;;;;;;;;;;;;12.57;100.00;101392.97;5243677;28;19917;-71
2023/05/15 04:53:43;;;;;;;;;;;;;;;12.57;100.00;101392.16;5242476;28;20297;-71
2023/05/15 04:56:14;;;;;;;;;;;;;;;12.58;100.00;101389.41;5243331;28;19939;-71
2023/05/15 04:58:45;;;;;;;;;;;;;;;12.62;100.00;101392.63;5245008;28;19928;-71
2023/05/15 05:01:16;;;;;;;;;;;;;;;12.66;100.00;101396.66;5244421;28;19968;-71
2023/05/15 05:03:47;;;;;;;;;;;;;;;12.73;100.00;101389.06;5245419;28;19917;-71
2023/05/15 05:06:19;;;;;;;;;;;;;;;12.75;100.00;101387.97;5244059;28;19975;-71
2023/05/15 05:08:50;;;;;;;;;;;;;;;12.80;100.00;101395.47;5245510;28;20362;-71
2023/05/15 05:11:21;;;;;;;;;;;;;;;12.83;100.00;101387.31;5236086;28;19924;-71
2023/05/15 05:13:52;;;;;;;;;;;;;;;12.80;100.00;101385.78;5242976;28;19971;-71
2023/05/15 05:16:24;;;;;;;;;;;;;;;12.82;100.00;101388.28;5242832;28;19919;-71
2023/05/15 05:18:55;;;;;;;;;;;;;;;12.84;100.00;101395.09;5241419;28;19916;-71
2023/05/15 05:21:26;;;;;;;;;;;;;;;12.87;100.00;101392.16;5241968;28;19917;-70
2023/05/15 05:23:58;;;;;;;;;;;;;;;12.88;100.00;101388.59;5245025;28;19920;-71
2023/05/15 05:26:29;;;;;;;;;;;;;;;12.88;100.00;101398.28;5238856;28;19925;-71
2023/05/15 05:29:00;;;;;;;;;;;;;;;12.86;100.00;101403.66;5239882;28;19956;-71
2023/05/15 05:31:31;;;;;;;;;;;;;;;12.87;100.00;101405.31;5238996;28;19995;-71
2023/05/15 05:34:02;;;;;;;;;;;;;;;12.87;100.00;101409.75;5238438;28;19920;-70
2023/05/15 05:36:35;;;;;;;;;;;;;;;12.87;100.00;101415.00;5243760;28;19916;-71
2023/05/15 05:39:07;;;;;;;;;;;;;;;12.90;100.00;101409.50;5231211;28;20286;-71
2023/05/15 05:41:38;;;;;;;;;;;;;;;12.98;100.00;101412.28;5243801;28;19928;-71
2023/05/15 05:44:09;;;;;;;;;;;;;;;13.02;100.00;101421.59;5240724;28;19921;-71
2023/05/15 05:46:41;;;;;;;;;;;;;;;13.04;100.00;101430.19;5243233;28;19938;-71
2023/05/15 05:49:12;;;;;;;;;;;;;;;13.05;100.00;101423.97;5241799;28;20016;-71
2023/05/15 05:51:44;;;;;;;;;;;;;;;13.06;100.00;101417.72;5245006;28;19917;-70
2023/05/15 05:54:17;;;;;;;;;;;;;;;13.02;100.00;101420.75;5245717;28;19916;-71
2023/05/15 05:56:48;;;;;;;;;;;;;;;13.08;100.00;101420.25;5229264;28;20669;-71
2023/05/15 05:59:19;;;;;;;;;;;;;;;13.13;100.00;101418.03;5240579;28;20058;-71
2023/05/15 06:01:51;;;;;;;;;;;;;;;13.17;100.00;101413.34;5239979;28;19924;-71
2023/05/15 06:04:22;;;;;;;;;;;;;;;13.27;100.00;101422.16;5241231;28;20024;-71
2023/05/15 06:06:53;;;;;;;;;;;;;;;13.34;100.00;101420.66;5236193;28;19924;-71
2023/05/15 06:09:24;;;;;;;;;;;;;;;13.41;100.00;101423.56;5245235;28;19940;-71
2023/05/15 06:11:56;;;;;;;;;;;;;;;13.36;100.00;101419.53;5247906;28;19999;-71
2023/05/15 06:14:27;;;;;;;;;;;;;;;13.45;100.00;101422.31;5238864;28;19913;-71
2023/05/15 06:16:59;;;;;;;;;;;;;;;13.50;100.00;101423.59;5235147;28;19913;-71
2023/05/15 06:19:30;;;;;;;;;;;;;;;13.60;100.00;101421.00;5234099;28;20132;-71
2023/05/15 06:22:01;;;;;;;;;;;;;;;13.70;100.00;101416.56;5236337;28;20015;-71
2023/05/15 06:24:32;;;;;;;;;;;;;;;13.83;100.00;101418.94;5242349;28;19912;-71
2023/05/15 06:27:04;;;;;;;;;;;;;;;13.86;100.00;101418.66;5240152;28;19923;-71
2023/05/15 06:29:35;;;;;;;;;;;;;;;13.92;100.00;101430.44;5244348;28;20570;-71
2023/05/15 06:32:06;;;;;;;;;;;;;;;14.01;100.00;101424.34;5238890;28;19944;-71
2023/05/15 06:34:38;;;;;;;;;;;;;;;14.14;100.00;101417.00;5240773;28;20000;-71
2023/05/15 06:37:10;;;;;;;;;;;;;;;14.29;100.00;101428.78;5240570;28;19916;-71
2023/05/15 06:39:41;;;;;;;;;;;;;;;14.31;100.00;101421.56;5244135;28;19924;-71
2023/05/15 06:42:13;;;;;;;;;;;;;;;14.35;100.00;101420.31;5237860;28;19917;-71
2023/05/15 06:44:46;;;;;;;;;;;;;;;14.40;100.00;101422.53;5241183;28;19916;-71
2023/05/15 06:47:17;;;;;;;;;;;;;;;14.46;100.00;101419.31;5242548;28;20016;-70
2023/05/15 06:49:48;;;;;;;;;;;;;;;14.49;100.00;101405.03;5242782;28;20023;-71
2023/05/15 06:52:19;;;;;;;;;;;;;;;14.61;100.00;101409.19;5244490;28;19984;-71
2023/05/15 06:54:51;;;;;;;;;;;;;;;14.76;100.00;101412.22;5242381;28;20515;-71
2023/05/15 06:57:22;;;;;;;;;;;;;;;14.93;100.00;101413.28;5242005;28;20375;-71
2023/05/15 06:59:53;;;;;;;;;;;;;;;15.07;100.00;101416.25;5242070;28;19917;-71
2023/05/15 07:02:24;;;;;;;;;;;;;;;15.24;100.00;101414.66;5243717;28;19970;-71
2023/05/15 07:04:56;;;;;;;;;;;;;;;15.37;100.00;101413.47;5239258;28;19929;-70
2023/05/15 07:07:27;;;;;;;;;;;;;;;15.37;100.00;101418.75;5242190;28;20043;-71
2023/05/15 07:09:58;;;;;;;;;;;;;;;15.39;100.00;101414.19;5238875;28;19913;-71
2023/05/15 07:12:31;;;;;;;;;;;;;;;15.46;100.00;101420.53;5243931;28;20346;-71
2023/05/15 07:15:03;;;;;;;;;;;;;;;15.61;100.00;101415.56;5237769;28;19927;-71
2023/05/15 07:17:34;;;;;;;;;;;;;;;15.65;100.00;101415.16;5244405;28;20345;-71
2023/05/15 07:20:06;;;;;;;;;;;;;;;15.68;100.00;101422.81;5236989;28;19917;-71
2023/05/15 07:22:37;;;;;;;;;;;;;;;15.69;100.00;101418.34;5243656;28;19917;-71
2023/05/15 07:25:08;;;;;;;;;;;;;;;15.80;99.11;101413.66;5244414;28;19913;-71
2023/05/15 07:27:40;;;;;;;;;;;;;;;15.94;99.06;101409.66;5228721;28;19929;-71
2023/05/15 07:30:11;;;;;;;;;;;;;;;16.09;99.16;101406.47;5240835;28;19921;-71
2023/05/15 07:32:42;;;;;;;;;;;;;;;16.30;97.87;101402.53;5233660;28;19967;-71
2023/05/15 07:35:13;;;;;;;;;;;;;;;16.37;96.01;101407.22;5245529;28;19913;-71
2023/05/15 07:37:45;;;;;;;;;;;;;;;16.35;94.85;101399.41;5243280;28;19912;-71
2023/05/15 07:40:16;;;;;;;;;;;;;;;16.47;94.37;101400.00;5228290;28;19912;-71
2023/05/15 07:42:47;;;;;;;;;;;;;;;16.57;90.87;101400.72;5249755;28;20346;-71
2023/05/15 07:45:19;;;;;;;;;;;;;;;16.75;91.97;101401.53;5244208;28;19917;-71
2023/05/15 07:47:50;;;;;;;;;;;;;;;16.90;92.17;101399.13;5246100;28;19920;-71
2023/05/15 07:50:21;;;;;;;;;;;;;;;16.97;89.24;101396.66;5241958;28;19917;-70
2023/05/15 07:52:52;;;;;;;;;;;;;;;17.06;87.95;101393.09;5245033;28;19974;-71
2023/05/15 07:55:23;;;;;;;;;;;;;;;17.11;89.68;101387.31;5249454;28;19923;-71
2023/05/15 07:57:55;;;;;;;;;;;;;;;17.22;90.88;101389.66;5248761;28;20381;-71
2023/05/15 08:00:26;;;;;;;;;;;;;;;17.33;89.92;101385.91;5247817;28;20358;-71
2023/05/15 08:02:58;;;;;;;;;;;;;;;17.45;91.22;101387.25;5242814;28;19917;-71
2023/05/15 08:05:29;;;;;;;;;;;;;;;17.57;85.93;101388.59;5246951;28;19955;-71
2023/05/15 08:08:00;;;;;;;;;;;;;;;17.59;85.65;101391.94;5247062;28;19928;-71
2023/05/15 08:10:31;;;;;;;;;;;;;;;17.66;86.33;101394.75;5239309;28;19970;-72
2023/05/15 08:13:02;;;;;;;;;;;;;;;17.78;86.67;101392.66;5241030;28;19919;-73
2023/05/15 08:15:33;;;;;;;;;;;;;;;17.83;86.95;101388.50;5232663;28;19913;-72
2023/05/15 08:18:08;;;;;;;;;;;;;;;17.92;81.38;101394.66;5242941;28;19920;-73
2023/05/15 08:20:40;;;;;;;;;;;;;;;17.98;77.34;101386.03;5240023;28;19921;-73
2023/05/15 08:23:11;;;;;;;;;;;;;;;18.08;82.26;101392.00;5238329;28;19928;-73
2023/05/15 08:25:42;;;;;;;;;;;;;;;18.22;80.74;101393.16;5232049;28;19950;-72
2023/05/15 08:28:13;;;;;;;;;;;;;;;18.34;79.68;101393.66;5241958;28;19917;-72
2023/05/15 08:30:44;;;;;;;;;;;;;;;18.40;74.89;101391.16;5224349;28;20452;-73
2023/05/15 08:33:16;;;;;;;;;;;;;;;18.53;76.07;101385.34;5240307;28;19995;-73
2023/05/15 08:35:47;;;;;;;;;;;;;;;18.65;77.52;101383.97;5242250;28;19913;-72
2023/05/15 08:38:18;;;;;;;;;;;;;;;18.71;76.96;101393.97;5241577;28;19917;-73
2023/05/15 08:40:51;;;;;;;;;;;;;;;18.83;75.11;101394.41;5236054;28;19967;-73
2023/05/15 08:43:24;;;;;;;;;;;;;;;18.94;76.56;101398.50;5245697;28;19913;-73
2023/05/15 08:45:59;;;;;;;;;;;;;;;18.90;74.71;101386.56;5240963;28;19923;-73
2023/05/15 08:48:35;;;;;;;;;;;;;;;18.93;74.25;101388.88;5245618;28;20382;-73
2023/05/15 08:51:08;;;;;;;;;;;;;;;18.90;68.09;101390.09;5237285;28;19921;-72
2023/05/15 08:53:39;;;;;;;;;;;;;;;18.90;68.39;101394.53;5238882;28;19917;-73
2023/05/15 08:56:10;;;;;;;;;;;;;;;19.01;72.80;101388.84;5245491;28;19913;-73
2023/05/15 08:58:42;;;;;;;;;;;;;;;19.17;74.66;101388.81;5244096;28;19951;-73
2023/05/15 09:01:14;;;;;;;;;;;;;;;19.33;75.12;101382.59;5239540;28;19920;-73
2023/05/15 09:03:45;;;;;;;;;;;;;;;19.48;74.92;101379.19;5244665;28;19916;-73
2023/05/15 09:06:17;;;;;;;;;;;;;;;19.60;75.26;101380.44;5243863;28;20392;-73
2023/05/15 09:08:49;;;;;;;;;;;;;;;19.72;70.27;101381.69;5235174;28;19924;-73
2023/05/15 09:11:22;;;;;;;;;;;;;;;19.78;66.61;101391.63;5240347;28;19917;-73
2023/05/15 09:13:56;;;;;;;;;;;;;;;19.89;72.41;101382.41;5247576;28;19916;-73
2023/05/15 09:16:28;;;;;;;;;;;;;;;19.87;69.48;101379.94;5234850;28;19917;-73
2023/05/15 09:18:59;;;;;;;;;;;;;;;19.94;71.31;101380.03;5241757;28;19962;-73
2023/05/15 09:21:30;;;;;;;;;;;;;;;20.06;73.16;101375.94;5242474;28;20003;-73
2023/05/15 09:24:14;;;;;;;;;;;;;;;20.01;66.45;101381.00;5242850;28;19962;-73
2023/05/15 09:26:46;;;;;;;;;;;;;;;19.96;70.97;101383.34;5237002;28;19928;-73
2023/05/15 09:29:18;;;;;;;;;;;;;;;19.97;68.93;101378.88;5236969;28;19933;-73
2023/05/15 09:31:49;;;;;;;;;;;;;;;19.94;68.33;101382.72;5236209;28;19917;-73
2023/05/15 09:34:27;;;;;;;;;;;;;;;19.84;67.64;101384.75;5233220;28;19912;-73
2023/05/15 09:37:00;;;;;;;;;;;;;;;19.80;68.93;101384.28;5234285;28;19917;-73
2023/05/15 09:39:32;;;;;;;;;;;;;;;19.78;66.74;101380.19;5244249;28;19995;-73
2023/05/15 09:42:08;;;;;;;;;;;;;;;19.83;71.19;101385.78;5221349;28;19999;-73
2023/05/15 09:44:43;;;;;;;;;;;;;;;19.71;67.45;101392.53;5228088;28;20020;-73
2023/05/15 09:47:17;;;;;;;;;;;;;;;19.62;68.47;101387.25;5244277;28;20405;-74
2023/05/15 09:49:48;;;;;;;;;;;;;;;19.50;66.37;101382.47;5238132;28;19925;-74
2023/05/15 09:52:22;;;;;;;;;;;;;;;19.40;67.44;101388.03;5241527;28;19917;-73
2023/05/15 09:54:53;;;;;;;;;;;;;;;19.45;69.16;101394.47;5229954;28;19928;-73
2023/05/15 09:57:24;;;;;;;;;;;;;;;19.42;68.82;101392.16;5239691;28;19912;-73
2023/05/15 10:00:00;;;;;;;;;;;;;;;19.48;70.16;101390.63;5243411;28;19909;-73
2023/05/15 10:02:33;;;;;;;;;;;;;;;19.55;65.70;101401.41;5228535;28;20018;-73
2023/05/15 10:05:04;;;;;;;;;;;;;;;19.65;67.89;101384.22;5239745;28;19916;-73
2023/05/15 10:07:35;;;;;;;;;;;;;;;19.60;65.95;101388.41;5233074;28;20359;-73
2023/05/15 10:10:07;;;;;;;;;;;;;;;19.61;65.18;101390.88;5243713;28;19920;-73
2023/05/15 10:12:38;;;;;;;;;;;;;;;19.62;66.79;101389.06;5241288;28;19908;-73
2023/05/15 10:15:10;;;;;;;;;;;;;;;19.58;66.42;101399.19;5239502;28;19956;-74
2023/05/15 10:17:42;;;;;;;;;;;;;;;19.53;64.87;101414.03;5245297;28;19923;-73
2023/05/15 10:20:15;;;;;;;;;;;;;;;19.42;66.18;101402.78;5240562;28;19908;-73
2023/05/15 10:22:50;;;;;;;;;;;;;;;19.41;65.90;101397.66;5248600;28;19920;-73
2023/05/15 10:25:24;;;;;;;;;;;;;;;19.51;67.62;101402.72;5238778;28;19916;-74
2023/05/15 10:27:56;;;;;;;;;;;;;;;19.42;66.28;101401.94;5237208;28;19913;-74
2023/05/15 10:30:30;;;;;;;;;;;;;;;19.46;69.47;101403.25;5239552;28;19917;-74
2023/05/15 10:33:03;;;;;;;;;;;;;;;19.45;67.35;101401.59;5242576;28;19947;-74
2023/05/15 10:35:35;;;;;;;;;;;;;;;19.44;68.03;101406.09;5239133;28;19912;-73
2023/05/15 10:38:06;;;;;;;;;;;;;;;19.33;68.22;101405.66;5220737;28;19917;-73
2023/05/15 10:40:39;;;;;;;;;;;;;;;19.28;70.22;101410.66;5238862;28;20366;-73
2023/05/15 10:43:12;;;;;;;;;;;;;;;19.19;68.71;101408.03;5241104;28;19963;-73
2023/05/15 10:45:44;;;;;;;;;;;;;;;19.10;69.02;101402.94;5238039;28;19955;-73
2023/05/15 10:48:16;;;;;;;;;;;;;;;19.16;70.36;101407.56;5245417;28;19925;-74
2023/05/15 10:50:48;;;;;;;;;;;;;;;19.17;69.29;101404.75;5241273;28;19944;-73
2023/05/15 10:53:19;;;;;;;;;;;;;;;19.13;69.88;101414.06;5223536;28;19994;-73
2023/05/15 10:55:51;;;;;;;;;;;;;;;19.11;69.99;101397.44;5243284;28;19916;-74
2023/05/15 10:58:22;;;;;;;;;;;;;;;19.18;69.80;101402.91;5234578;28;20386;-73
2023/05/15 11:00:54;;;;;;;;;;;;;;;19.15;69.88;101406.72;5246686;28;19947;-73
2023/05/15 11:03:36;;;;;;;;;;;;;;;19.13;70.47;101408.75;5243621;28;19917;-74
2023/05/15 11:06:08;;;;;;;;;;;;;;;19.20;69.68;101400.91;5240104;28;19920;-74
2023/05/15 11:08:40;;;;;;;;;;;;;;;19.09;68.70;101404.78;5242963;28;19921;-74
2023/05/15 11:11:30;;;;;;;;;;;;;;;19.04;69.93;101411.59;5241022;28;20353;-73
2023/05/15 11:14:04;;;;;;;;;;;;;;;18.96;69.67;101405.31;5245067;28;20354;-73
2023/05/15 11:16:56;;;;;;;;;;;;;;;18.92;69.78;101405.84;5244366;28;19951;-73
2023/05/15 11:19:28;;;;;;;;;;;;;;;18.87;70.05;101402.88;5243233;28;20035;-73
2023/05/15 11:22:00;;;;;;;;;;;;;;;18.87;71.38;101408.19;5248293;28;20007;-73
2023/05/15 11:24:50;;;;;;;;;;;;;;;18.88;70.74;101400.03;5243629;28;19949;-73
2023/05/15 11:27:22;;;;;;;;;;;;;;;18.96;71.66;101389.38;5244156;28;20263;-73
2023/05/15 11:30:02;;;;;;;;;;;;;;;19.01;70.01;101398.66;5240490;28;20357;-74
2023/05/15 11:32:44;;;;;;;;;;;;;;;19.02;70.83;101395.03;5244712;28;20393;-73
2023/05/15 11:35:20;;;;;;;;;;;;;;;18.98;71.31;101396.34;5244052;28;19966;-74
2023/05/15 11:37:56;;;;;;;;;;;;;;;18.93;71.25;101394.19;5246037;28;20400;-74
2023/05/15 11:40:28;;;;;;;;;;;;;;;18.91;71.65;101399.69;5229464;28;19913;-74
2023/05/15 11:43:04;;;;;;;;;;;;;;;18.85;71.58;101397.72;5244352;28;19912;-74
2023/05/15 11:45:36;;;;;;;;;;;;;;;18.82;72.09;101400.69;5251925;28;19916;-74
2023/05/15 11:48:11;;;;;;;;;;;;;;;18.81;71.58;101398.22;5243095;28;19921;-73
2023/05/15 11:50:44;;;;;;;;;;;;;;;18.75;71.98;101397.06;5243931;28;19916;-73
2023/05/15 11:53:15;;;;;;;;;;;;;;;18.74;72.21;101394.59;5243217;28;19966;-73
2023/05/15 11:55:46;;;;;;;;;;;;;;;18.71;73.24;101399.25;5247815;28;19913;-73
2023/05/15 11:58:18;;;;;;;;;;;;;;;18.67;72.77;101399.72;5231257;28;19941;-73
2023/05/15 12:00:51;;;;;;;;;;;;;;;18.63;73.59;101396.56;5233793;28;19928;-73
2023/05/15 12:03:24;;;;;;;;;;;;;;;18.57;74.59;101399.09;5245021;28;19913;-73
2023/05/15 12:05:55;;;;;;;;;;;;;;;18.51;74.81;101399.75;5240640;28;19920;-76
2023/05/15 12:08:33;;;;;;;;;;;;;;;18.44;74.65;101402.25;5243832;28;19917;-73
2023/05/15 12:11:05;;;;;;;;;;;;;;;18.38;77.29;101403.75;5248162;28;19924;-74
2023/05/15 12:13:36;;;;;;;;;;;;;;;18.26;77.45;101397.16;5249474;28;19913;-73
2023/05/15 12:16:07;;;;;;;;;;;;;;;18.18;76.71;101405.94;5241485;28;20000;-73
2023/05/15 12:18:38;;;;;;;;;;;;;;;18.06;78.17;101404.59;5250504;28;19939;-73
2023/05/15 12:21:09;;;;;;;;;;;;;;;18.11;78.87;101401.47;5240829;28;19921;-73
2023/05/15 12:23:48;;;;;;;;;;;;;;;18.08;80.26;101404.44;5248557;28;19916;-73
2023/05/15 12:26:21;;;;;;;;;;;;;;;18.08;80.30;101397.31;5236649;28;20343;-73
2023/05/15 12:28:54;;;;;;;;;;;;;;;18.10;80.47;101395.31;5246907;28;19925;-73
2023/05/15 12:31:25;;;;;;;;;;;;;;;18.18;79.57;101397.13;5246066;28;19920;-73
2023/05/15 12:33:56;;;;;;;;;;;;;;;18.22;78.30;101391.34;5251047;28;19917;-73
2023/05/15 12:36:30;;;;;;;;;;;;;;;18.24;78.60;101394.66;5244704;28;19920;-73
2023/05/15 12:39:05;;;;;;;;;;;;;;;18.21;79.75;101389.66;5246795;28;19978;-73
2023/05/15 12:41:37;;;;;;;;;;;;;;;18.20;78.31;101389.84;5252116;28;19913;-73
2023/05/15 12:44:15;;;;;;;;;;;;;;;18.24;79.28;101385.88;5244811;28;19917;-73
2023/05/15 12:46:47;;;;;;;;;;;;;;;18.22;79.81;101385.19;5245287;28;19921;-73
2023/05/15 12:49:21;;;;;;;;;;;;;;;18.28;81.00;101395.16;5242160;28;19921;-73
2023/05/15 12:51:53;;;;;;;;;;;;;;;18.37;79.37;101390.66;5241435;28;19931;-73
2023/05/15 12:54:25;;;;;;;;;;;;;;;18.51;77.76;101384.66;5243297;28;20362;-73
2023/05/15 12:56:56;;;;;;;;;;;;;;;18.62;78.44;101388.78;5243873;28;20294;-73
2023/05/15 12:59:27;;;;;;;;;;;;;;;18.80;79.01;101391.28;5241019;28;19913;-73